sensor_id;sensor_type;location;lat;lon;timestamp;P1;durP1;ratioP1;P2;durP2;ratioP2
6205;SDS011;3136;48.788;9.772;2024-02-14T00:00:03;12.63;;;6.60;;
6205;SDS011;3136;48.788;9.772;2024-02-14T00:02:29;11.13;;;6.77;;
6205;SDS011;3136;48.788;9.772;2024-02-14T00:04:55;12.97;;;6.77;;
6205;SDS011;3136;48.788;9.772;2024-02-14T00:07:20;10.37;;;6.83;;
6205;SDS011;3136;48.788;9.772;2024-02-14T00:09:47;10.80;;;7.07;;
6205;SDS011;3136;48.788;9.772;2024-02-14T00:12:13;9.73;;;6.40;;
6205;SDS011;3136;48.788;9.772;2024-02-14T00:14:38;9.53;;;6.17;;
6205;SDS011;3136;48.788;9.772;2024-02-14T00:17:04;10.13;;;6.67;;
6205;SDS011;3136;48.788;9.772;2024-02-14T00:19:31;10.57;;;6.80;;
6205;SDS011;3136;48.788;9.772;2024-02-14T00:21:56;12.67;;;6.80;;
6205;SDS011;3136;48.788;9.772;2024-02-14T00:24:22;9.27;;;6.73;;
6205;SDS011;3136;48.788;9.772;2024-02-14T00:26:49;10.90;;;7.50;;
6205;SDS011;3136;48.788;9.772;2024-02-14T00:29:15;11.13;;;6.93;;
6205;SDS011;3136;48.788;9.772;2024-02-14T00:31:40;11.73;;;7.33;;
6205;SDS011;3136;48.788;9.772;2024-02-14T00:34:08;11.17;;;6.80;;
6205;SDS011;3136;48.788;9.772;2024-02-14T00:36:33;11.17;;;6.93;;
6205;SDS011;3136;48.788;9.772;2024-02-14T00:38:59;11.40;;;7.07;;
6205;SDS011;3136;48.788;9.772;2024-02-14T00:41:24;14.40;;;7.33;;
6205;SDS011;3136;48.788;9.772;2024-02-14T00:43:54;15.10;;;7.27;;
6205;SDS011;3136;48.788;9.772;2024-02-14T00:46:23;13.23;;;7.80;;
6205;SDS011;3136;48.788;9.772;2024-02-14T00:48:48;11.23;;;7.40;;
6205;SDS011;3136;48.788;9.772;2024-02-14T00:51:14;12.33;;;7.33;;
6205;SDS011;3136;48.788;9.772;2024-02-14T00:53:39;14.63;;;7.73;;
6205;SDS011;3136;48.788;9.772;2024-02-14T00:56:05;12.43;;;7.63;;
6205;SDS011;3136;48.788;9.772;2024-02-14T00:58:31;12.10;;;6.80;;
6205;SDS011;3136;48.788;9.772;2024-02-14T01:00:56;9.33;;;6.63;;
6205;SDS011;3136;48.788;9.772;2024-02-14T01:03:22;10.43;;;6.77;;
6205;SDS011;3136;48.788;9.772;2024-02-14T01:05:48;10.90;;;7.03;;
6205;SDS011;3136;48.788;9.772;2024-02-14T01:08:14;11.00;;;6.80;;
6205;SDS011;3136;48.788;9.772;2024-02-14T01:10:39;11.70;;;7.03;;
6205;SDS011;3136;48.788;9.772;2024-02-14T01:13:05;10.00;;;6.37;;
6205;SDS011;3136;48.788;9.772;2024-02-14T01:15:31;12.60;;;6.50;;
6205;SDS011;3136;48.788;9.772;2024-02-14T01:17:58;11.33;;;7.43;;
6205;SDS011;3136;48.788;9.772;2024-02-14T01:20:24;14.27;;;6.93;;
6205;SDS011;3136;48.788;9.772;2024-02-14T01:22:49;11.77;;;6.87;;
6205;SDS011;3136;48.788;9.772;2024-02-14T01:25:15;9.47;;;6.53;;
6205;SDS011;3136;48.788;9.772;2024-02-14T01:27:41;8.90;;;6.37;;
6205;SDS011;3136;48.788;9.772;2024-02-14T01:30:07;10.83;;;7.20;;
6205;SDS011;3136;48.788;9.772;2024-02-14T01:32:34;11.07;;;6.70;;
6205;SDS011;3136;48.788;9.772;2024-02-14T01:34:59;10.90;;;7.20;;
6205;SDS011;3136;48.788;9.772;2024-02-14T01:37:25;9.60;;;6.77;;
6205;SDS011;3136;48.788;9.772;2024-02-14T01:39:51;12.63;;;7.20;;
6205;SDS011;3136;48.788;9.772;2024-02-14T01:42:17;10.73;;;6.50;;
6205;SDS011;3136;48.788;9.772;2024-02-14T01:44:42;10.37;;;6.37;;
6205;SDS011;3136;48.788;9.772;2024-02-14T01:47:08;10.53;;;6.50;;
6205;SDS011;3136;48.788;9.772;2024-02-14T01:49:35;8.57;;;6.63;;
6205;SDS011;3136;48.788;9.772;2024-02-14T01:52:02;9.57;;;6.10;;
6205;SDS011;3136;48.788;9.772;2024-02-14T01:54:31;10.17;;;6.80;;
6205;SDS011;3136;48.788;9.772;2024-02-14T01:56:59;10.13;;;6.57;;
6205;SDS011;3136;48.788;9.772;2024-02-14T01:59:26;11.83;;;6.87;;
6205;SDS011;3136;48.788;9.772;2024-02-14T02:01:52;10.37;;;6.40;;
6205;SDS011;3136;48.788;9.772;2024-02-14T02:04:17;10.63;;;6.63;;
6205;SDS011;3136;48.788;9.772;2024-02-14T02:06:44;10.57;;;6.80;;
6205;SDS011;3136;48.788;9.772;2024-02-14T02:09:09;12.50;;;6.57;;
6205;SDS011;3136;48.788;9.772;2024-02-14T02:12:08;12.73;;;6.40;;
6205;SDS011;3136;48.788;9.772;2024-02-14T02:14:31;10.83;;;6.43;;
6205;SDS011;3136;48.788;9.772;2024-02-14T02:16:57;10.23;;;6.50;;
6205;SDS011;3136;48.788;9.772;2024-02-14T02:19:22;10.83;;;6.37;;
6205;SDS011;3136;48.788;9.772;2024-02-14T02:21:48;9.23;;;6.53;;
6205;SDS011;3136;48.788;9.772;2024-02-14T02:24:14;11.13;;;7.33;;
6205;SDS011;3136;48.788;9.772;2024-02-14T02:26:40;10.73;;;6.87;;
6205;SDS011;3136;48.788;9.772;2024-02-14T02:29:05;10.33;;;6.77;;
6205;SDS011;3136;48.788;9.772;2024-02-14T02:31:31;10.80;;;6.77;;
6205;SDS011;3136;48.788;9.772;2024-02-14T02:33:57;14.70;;;6.90;;
6205;SDS011;3136;48.788;9.772;2024-02-14T02:36:23;12.13;;;6.77;;
6205;SDS011;3136;48.788;9.772;2024-02-14T02:38:49;13.33;;;6.60;;
6205;SDS011;3136;48.788;9.772;2024-02-14T02:41:15;11.63;;;6.03;;
6205;SDS011;3136;48.788;9.772;2024-02-14T02:43:41;10.63;;;6.00;;
6205;SDS011;3136;48.788;9.772;2024-02-14T02:46:08;12.17;;;5.90;;
6205;SDS011;3136;48.788;9.772;2024-02-14T02:48:34;9.33;;;6.33;;
6205;SDS011;3136;48.788;9.772;2024-02-14T02:51:01;8.90;;;6.17;;
6205;SDS011;3136;48.788;9.772;2024-02-14T02:53:26;16.67;;;6.47;;
6205;SDS011;3136;48.788;9.772;2024-02-14T02:55:52;10.80;;;6.13;;
6205;SDS011;3136;48.788;9.772;2024-02-14T02:58:19;11.03;;;6.90;;
6205;SDS011;3136;48.788;9.772;2024-02-14T03:00:46;9.47;;;6.23;;
6205;SDS011;3136;48.788;9.772;2024-02-14T03:03:14;12.13;;;6.33;;
6205;SDS011;3136;48.788;9.772;2024-02-14T03:05:41;7.83;;;5.73;;
6205;SDS011;3136;48.788;9.772;2024-02-14T03:08:09;9.60;;;6.13;;
6205;SDS011;3136;48.788;9.772;2024-02-14T03:10:38;12.93;;;6.60;;
6205;SDS011;3136;48.788;9.772;2024-02-14T03:13:05;14.37;;;7.20;;
6205;SDS011;3136;48.788;9.772;2024-02-14T03:15:34;10.90;;;6.40;;
6205;SDS011;3136;48.788;9.772;2024-02-14T03:18:00;10.00;;;6.80;;
6205;SDS011;3136;48.788;9.772;2024-02-14T03:20:26;10.57;;;6.57;;
6205;SDS011;3136;48.788;9.772;2024-02-14T03:22:54;9.27;;;5.97;;
6205;SDS011;3136;48.788;9.772;2024-02-14T03:25:20;9.20;;;6.40;;
6205;SDS011;3136;48.788;9.772;2024-02-14T03:27:46;10.67;;;6.33;;
6205;SDS011;3136;48.788;9.772;2024-02-14T03:30:16;10.60;;;6.50;;
6205;SDS011;3136;48.788;9.772;2024-02-14T03:32:45;9.83;;;6.50;;
6205;SDS011;3136;48.788;9.772;2024-02-14T03:35:17;8.20;;;6.10;;
6205;SDS011;3136;48.788;9.772;2024-02-14T03:37:45;11.63;;;6.47;;
6205;SDS011;3136;48.788;9.772;2024-02-14T03:40:13;9.83;;;6.37;;
6205;SDS011;3136;48.788;9.772;2024-02-14T03:42:39;9.10;;;6.23;;
6205;SDS011;3136;48.788;9.772;2024-02-14T03:45:05;9.30;;;6.40;;
6205;SDS011;3136;48.788;9.772;2024-02-14T03:47:31;11.70;;;7.03;;
6205;SDS011;3136;48.788;9.772;2024-02-14T03:49:58;9.93;;;6.10;;
6205;SDS011;3136;48.788;9.772;2024-02-14T03:52:24;12.90;;;6.30;;
6205;SDS011;3136;48.788;9.772;2024-02-14T03:54:49;11.27;;;6.50;;
6205;SDS011;3136;48.788;9.772;2024-02-14T03:57:15;9.53;;;6.27;;
6205;SDS011;3136;48.788;9.772;2024-02-14T03:59:42;11.80;;;6.33;;
6205;SDS011;3136;48.788;9.772;2024-02-14T04:02:08;7.50;;;5.80;;
6205;SDS011;3136;48.788;9.772;2024-02-14T04:04:36;10.10;;;6.57;;
6205;SDS011;3136;48.788;9.772;2024-02-14T04:07:04;9.33;;;6.73;;
6205;SDS011;3136;48.788;9.772;2024-02-14T04:09:32;13.57;;;6.67;;
6205;SDS011;3136;48.788;9.772;2024-02-14T04:11:58;10.23;;;5.80;;
6205;SDS011;3136;48.788;9.772;2024-02-14T04:14:24;14.83;;;6.60;;
6205;SDS011;3136;48.788;9.772;2024-02-14T04:16:50;9.27;;;6.37;;
6205;SDS011;3136;48.788;9.772;2024-02-14T04:19:15;12.27;;;6.33;;
6205;SDS011;3136;48.788;9.772;2024-02-14T04:21:42;9.10;;;6.27;;
6205;SDS011;3136;48.788;9.772;2024-02-14T04:24:08;10.50;;;6.60;;
6205;SDS011;3136;48.788;9.772;2024-02-14T04:26:33;9.17;;;6.07;;
6205;SDS011;3136;48.788;9.772;2024-02-14T04:28:59;10.00;;;6.40;;
6205;SDS011;3136;48.788;9.772;2024-02-14T04:31:25;12.73;;;7.00;;
6205;SDS011;3136;48.788;9.772;2024-02-14T04:33:51;10.50;;;6.47;;
6205;SDS011;3136;48.788;9.772;2024-02-14T04:36:18;11.53;;;6.93;;
6205;SDS011;3136;48.788;9.772;2024-02-14T04:38:45;9.20;;;7.07;;
6205;SDS011;3136;48.788;9.772;2024-02-14T04:41:11;12.00;;;7.17;;
6205;SDS011;3136;48.788;9.772;2024-02-14T04:43:37;11.17;;;6.77;;
6205;SDS011;3136;48.788;9.772;2024-02-14T04:46:03;10.77;;;6.87;;
6205;SDS011;3136;48.788;9.772;2024-02-14T04:48:32;11.83;;;7.23;;
6205;SDS011;3136;48.788;9.772;2024-02-14T04:50:58;10.37;;;6.20;;
6205;SDS011;3136;48.788;9.772;2024-02-14T04:53:23;11.03;;;6.27;;
6205;SDS011;3136;48.788;9.772;2024-02-14T04:55:49;12.43;;;6.77;;
6205;SDS011;3136;48.788;9.772;2024-02-14T04:58:15;10.60;;;6.37;;
6205;SDS011;3136;48.788;9.772;2024-02-14T05:00:41;9.10;;;6.27;;
6205;SDS011;3136;48.788;9.772;2024-02-14T05:03:07;10.87;;;6.63;;
6205;SDS011;3136;48.788;9.772;2024-02-14T05:05:35;11.60;;;6.47;;
6205;SDS011;3136;48.788;9.772;2024-02-14T05:08:01;9.97;;;6.20;;
6205;SDS011;3136;48.788;9.772;2024-02-14T05:10:29;10.73;;;6.10;;
6205;SDS011;3136;48.788;9.772;2024-02-14T05:12:56;9.10;;;6.57;;
6205;SDS011;3136;48.788;9.772;2024-02-14T05:15:22;10.43;;;6.43;;
6205;SDS011;3136;48.788;9.772;2024-02-14T05:17:47;9.27;;;6.60;;
6205;SDS011;3136;48.788;9.772;2024-02-14T05:20:14;12.43;;;6.17;;
6205;SDS011;3136;48.788;9.772;2024-02-14T05:22:39;9.43;;;6.63;;
6205;SDS011;3136;48.788;9.772;2024-02-14T05:25:05;10.00;;;6.50;;
6205;SDS011;3136;48.788;9.772;2024-02-14T05:27:34;8.73;;;6.17;;
6205;SDS011;3136;48.788;9.772;2024-02-14T05:30:01;9.63;;;5.73;;
6205;SDS011;3136;48.788;9.772;2024-02-14T05:32:30;11.97;;;6.00;;
6205;SDS011;3136;48.788;9.772;2024-02-14T05:34:58;9.13;;;6.10;;
6205;SDS011;3136;48.788;9.772;2024-02-14T05:37:24;11.40;;;6.90;;
6205;SDS011;3136;48.788;9.772;2024-02-14T05:39:52;10.23;;;6.30;;
6205;SDS011;3136;48.788;9.772;2024-02-14T05:42:20;10.20;;;6.20;;
6205;SDS011;3136;48.788;9.772;2024-02-14T05:44:47;9.33;;;5.90;;
6205;SDS011;3136;48.788;9.772;2024-02-14T05:47:13;9.60;;;6.27;;
6205;SDS011;3136;48.788;9.772;2024-02-14T05:49:41;10.27;;;6.30;;
6205;SDS011;3136;48.788;9.772;2024-02-14T05:52:07;8.90;;;6.03;;
6205;SDS011;3136;48.788;9.772;2024-02-14T05:54:33;10.43;;;6.33;;
6205;SDS011;3136;48.788;9.772;2024-02-14T05:56:59;8.57;;;5.67;;
6205;SDS011;3136;48.788;9.772;2024-02-14T05:59:26;7.77;;;5.93;;
6205;SDS011;3136;48.788;9.772;2024-02-14T06:01:51;12.70;;;6.10;;
6205;SDS011;3136;48.788;9.772;2024-02-14T06:04:18;13.13;;;6.27;;
6205;SDS011;3136;48.788;9.772;2024-02-14T06:06:43;11.77;;;6.13;;
6205;SDS011;3136;48.788;9.772;2024-02-14T06:09:09;9.13;;;5.60;;
6205;SDS011;3136;48.788;9.772;2024-02-14T06:11:36;14.40;;;7.57;;
6205;SDS011;3136;48.788;9.772;2024-02-14T06:14:04;10.47;;;6.00;;
6205;SDS011;3136;48.788;9.772;2024-02-14T06:16:33;7.57;;;4.97;;
6205;SDS011;3136;48.788;9.772;2024-02-14T06:18:59;6.87;;;5.07;;
6205;SDS011;3136;48.788;9.772;2024-02-14T06:21:25;10.83;;;5.27;;
6205;SDS011;3136;48.788;9.772;2024-02-14T06:23:52;8.73;;;5.47;;
6205;SDS011;3136;48.788;9.772;2024-02-14T06:26:18;9.13;;;5.50;;
6205;SDS011;3136;48.788;9.772;2024-02-14T06:28:43;9.23;;;5.50;;
6205;SDS011;3136;48.788;9.772;2024-02-14T06:31:09;11.00;;;5.70;;
6205;SDS011;3136;48.788;9.772;2024-02-14T06:33:35;9.03;;;5.47;;
6205;SDS011;3136;48.788;9.772;2024-02-14T06:36:01;9.77;;;5.60;;
6205;SDS011;3136;48.788;9.772;2024-02-14T06:38:27;10.33;;;5.40;;
6205;SDS011;3136;48.788;9.772;2024-02-14T06:40:52;10.43;;;5.33;;
6205;SDS011;3136;48.788;9.772;2024-02-14T06:43:18;8.27;;;5.43;;
6205;SDS011;3136;48.788;9.772;2024-02-14T06:45:44;11.10;;;5.47;;
6205;SDS011;3136;48.788;9.772;2024-02-14T06:48:10;8.17;;;4.80;;
6205;SDS011;3136;48.788;9.772;2024-02-14T06:50:35;5.90;;;4.50;;
6205;SDS011;3136;48.788;9.772;2024-02-14T06:53:01;8.90;;;5.17;;
6205;SDS011;3136;48.788;9.772;2024-02-14T06:55:27;10.37;;;5.13;;
6205;SDS011;3136;48.788;9.772;2024-02-14T06:57:53;6.77;;;4.70;;
6205;SDS011;3136;48.788;9.772;2024-02-14T07:00:19;11.47;;;5.50;;
6205;SDS011;3136;48.788;9.772;2024-02-14T07:02:45;7.53;;;4.80;;
6205;SDS011;3136;48.788;9.772;2024-02-14T07:05:13;8.73;;;5.13;;
6205;SDS011;3136;48.788;9.772;2024-02-14T07:07:39;7.67;;;5.57;;
6205;SDS011;3136;48.788;9.772;2024-02-14T07:10:05;11.20;;;5.43;;
6205;SDS011;3136;48.788;9.772;2024-02-14T07:12:32;8.50;;;4.67;;
6205;SDS011;3136;48.788;9.772;2024-02-14T07:14:57;14.43;;;5.30;;
6205;SDS011;3136;48.788;9.772;2024-02-14T07:17:23;15.73;;;5.13;;
6205;SDS011;3136;48.788;9.772;2024-02-14T07:19:48;12.57;;;5.33;;
6205;SDS011;3136;48.788;9.772;2024-02-14T07:22:15;13.00;;;5.70;;
6205;SDS011;3136;48.788;9.772;2024-02-14T07:24:41;10.37;;;5.20;;
6205;SDS011;3136;48.788;9.772;2024-02-14T07:27:11;13.37;;;4.90;;
6205;SDS011;3136;48.788;9.772;2024-02-14T07:29:37;11.60;;;5.23;;
6205;SDS011;3136;48.788;9.772;2024-02-14T07:32:03;8.37;;;5.17;;
6205;SDS011;3136;48.788;9.772;2024-02-14T07:34:29;7.90;;;5.40;;
6205;SDS011;3136;48.788;9.772;2024-02-14T07:36:54;10.13;;;5.87;;
6205;SDS011;3136;48.788;9.772;2024-02-14T07:39:20;6.10;;;4.90;;
6205;SDS011;3136;48.788;9.772;2024-02-14T07:41:46;9.83;;;4.97;;
6205;SDS011;3136;48.788;9.772;2024-02-14T07:44:11;11.73;;;4.90;;
6205;SDS011;3136;48.788;9.772;2024-02-14T07:46:38;7.10;;;4.60;;
6205;SDS011;3136;48.788;9.772;2024-02-14T07:49:03;12.47;;;5.87;;
6205;SDS011;3136;48.788;9.772;2024-02-14T07:51:30;14.37;;;9.33;;
6205;SDS011;3136;48.788;9.772;2024-02-14T07:54:01;9.67;;;5.50;;
6205;SDS011;3136;48.788;9.772;2024-02-14T07:56:30;8.67;;;5.70;;
6205;SDS011;3136;48.788;9.772;2024-02-14T07:58:56;8.17;;;4.97;;
6205;SDS011;3136;48.788;9.772;2024-02-14T08:01:22;12.07;;;5.83;;
6205;SDS011;3136;48.788;9.772;2024-02-14T08:03:47;8.17;;;5.30;;
6205;SDS011;3136;48.788;9.772;2024-02-14T08:06:13;10.20;;;4.90;;
6205;SDS011;3136;48.788;9.772;2024-02-14T08:08:39;7.63;;;4.63;;
6205;SDS011;3136;48.788;9.772;2024-02-14T08:11:05;15.00;;;5.10;;
6205;SDS011;3136;48.788;9.772;2024-02-14T08:13:31;7.83;;;5.10;;
6205;SDS011;3136;48.788;9.772;2024-02-14T08:15:57;8.67;;;4.57;;
6205;SDS011;3136;48.788;9.772;2024-02-14T08:18:23;11.80;;;4.67;;
6205;SDS011;3136;48.788;9.772;2024-02-14T08:20:49;10.43;;;3.97;;
6205;SDS011;3136;48.788;9.772;2024-02-14T08:23:14;6.07;;;3.90;;
6205;SDS011;3136;48.788;9.772;2024-02-14T08:25:40;6.87;;;4.07;;
6205;SDS011;3136;48.788;9.772;2024-02-14T08:28:06;10.13;;;3.60;;
6205;SDS011;3136;48.788;9.772;2024-02-14T08:30:32;7.13;;;3.77;;
6205;SDS011;3136;48.788;9.772;2024-02-14T08:32:58;7.13;;;3.57;;
6205;SDS011;3136;48.788;9.772;2024-02-14T08:35:24;10.07;;;4.60;;
6205;SDS011;3136;48.788;9.772;2024-02-14T08:37:49;7.50;;;5.23;;
6205;SDS011;3136;48.788;9.772;2024-02-14T08:40:15;12.57;;;8.37;;
6205;SDS011;3136;48.788;9.772;2024-02-14T08:42:40;11.57;;;7.80;;
6205;SDS011;3136;48.788;9.772;2024-02-14T08:45:06;6.70;;;4.90;;
6205;SDS011;3136;48.788;9.772;2024-02-14T08:47:33;8.10;;;4.83;;
6205;SDS011;3136;48.788;9.772;2024-02-14T08:49:59;8.77;;;4.83;;
6205;SDS011;3136;48.788;9.772;2024-02-14T08:52:24;5.63;;;3.93;;
6205;SDS011;3136;48.788;9.772;2024-02-14T08:54:51;5.67;;;4.00;;
6205;SDS011;3136;48.788;9.772;2024-02-14T08:57:17;8.03;;;4.07;;
6205;SDS011;3136;48.788;9.772;2024-02-14T08:59:44;5.70;;;4.20;;
6205;SDS011;3136;48.788;9.772;2024-02-14T09:02:12;10.27;;;4.50;;
6205;SDS011;3136;48.788;9.772;2024-02-14T09:04:38;5.93;;;3.73;;
6205;SDS011;3136;48.788;9.772;2024-02-14T09:07:05;9.03;;;4.10;;
6205;SDS011;3136;48.788;9.772;2024-02-14T09:09:32;8.70;;;3.90;;
6205;SDS011;3136;48.788;9.772;2024-02-14T09:11:58;8.97;;;4.07;;
6205;SDS011;3136;48.788;9.772;2024-02-14T09:14:27;5.97;;;3.83;;
6205;SDS011;3136;48.788;9.772;2024-02-14T09:16:56;7.10;;;3.80;;
6205;SDS011;3136;48.788;9.772;2024-02-14T09:19:22;6.00;;;3.63;;
6205;SDS011;3136;48.788;9.772;2024-02-14T09:21:48;6.77;;;3.60;;
6205;SDS011;3136;48.788;9.772;2024-02-14T09:24:14;4.77;;;3.27;;
6205;SDS011;3136;48.788;9.772;2024-02-14T09:26:39;6.43;;;3.00;;
6205;SDS011;3136;48.788;9.772;2024-02-14T09:29:05;6.17;;;3.17;;
6205;SDS011;3136;48.788;9.772;2024-02-14T09:31:31;5.87;;;3.20;;
6205;SDS011;3136;48.788;9.772;2024-02-14T09:33:56;8.47;;;3.27;;
6205;SDS011;3136;48.788;9.772;2024-02-14T09:36:23;5.10;;;3.07;;
6205;SDS011;3136;48.788;9.772;2024-02-14T09:38:49;4.23;;;3.33;;
6205;SDS011;3136;48.788;9.772;2024-02-14T09:41:25;6.23;;;3.40;;
6205;SDS011;3136;48.788;9.772;2024-02-14T09:43:56;7.53;;;3.60;;
6205;SDS011;3136;48.788;9.772;2024-02-14T09:46:23;7.53;;;3.60;;
6205;SDS011;3136;48.788;9.772;2024-02-14T09:48:52;7.50;;;3.23;;
6205;SDS011;3136;48.788;9.772;2024-02-14T09:51:20;7.03;;;3.17;;
6205;SDS011;3136;48.788;9.772;2024-02-14T09:53:46;6.33;;;2.70;;
6205;SDS011;3136;48.788;9.772;2024-02-14T09:56:12;4.57;;;2.50;;
6205;SDS011;3136;48.788;9.772;2024-02-14T09:58:40;6.73;;;3.03;;
6205;SDS011;3136;48.788;9.772;2024-02-14T10:01:06;3.80;;;2.60;;
6205;SDS011;3136;48.788;9.772;2024-02-14T10:03:32;7.05;;;3.20;;
6205;SDS011;3136;48.788;9.772;2024-02-14T10:05:59;7.10;;;3.00;;
6205;SDS011;3136;48.788;9.772;2024-02-14T10:08:24;4.97;;;2.77;;
6205;SDS011;3136;48.788;9.772;2024-02-14T10:10:51;5.77;;;2.97;;
6205;SDS011;3136;48.788;9.772;2024-02-14T10:13:17;3.77;;;2.47;;
6205;SDS011;3136;48.788;9.772;2024-02-14T10:15:43;4.90;;;4.03;;
6205;SDS011;3136;48.788;9.772;2024-02-14T10:18:08;4.73;;;3.43;;
6205;SDS011;3136;48.788;9.772;2024-02-14T10:20:34;6.23;;;3.40;;
6205;SDS011;3136;48.788;9.772;2024-02-14T10:23:05;5.93;;;2.90;;
6205;SDS011;3136;48.788;9.772;2024-02-14T10:25:36;5.73;;;3.10;;
6205;SDS011;3136;48.788;9.772;2024-02-14T10:28:09;3.70;;;2.43;;
6205;SDS011;3136;48.788;9.772;2024-02-14T10:30:35;8.80;;;2.33;;
6205;SDS011;3136;48.788;9.772;2024-02-14T10:33:03;4.87;;;2.40;;
6205;SDS011;3136;48.788;9.772;2024-02-14T10:35:30;4.27;;;2.00;;
6205;SDS011;3136;48.788;9.772;2024-02-14T10:37:57;7.00;;;2.30;;
6205;SDS011;3136;48.788;9.772;2024-02-14T10:40:27;4.73;;;2.30;;
6205;SDS011;3136;48.788;9.772;2024-02-14T10:42:53;2.63;;;2.10;;
6205;SDS011;3136;48.788;9.772;2024-02-14T10:45:19;4.17;;;1.90;;
6205;SDS011;3136;48.788;9.772;2024-02-14T10:47:45;3.40;;;2.17;;
6205;SDS011;3136;48.788;9.772;2024-02-14T10:50:14;5.63;;;1.90;;
6205;SDS011;3136;48.788;9.772;2024-02-14T10:52:41;3.27;;;2.30;;
6205;SDS011;3136;48.788;9.772;2024-02-14T10:55:06;3.73;;;1.80;;
6205;SDS011;3136;48.788;9.772;2024-02-14T10:57:34;5.30;;;1.80;;
6205;SDS011;3136;48.788;9.772;2024-02-14T11:00:01;4.83;;;2.30;;
6205;SDS011;3136;48.788;9.772;2024-02-14T11:02:32;2.63;;;1.80;;
6205;SDS011;3136;48.788;9.772;2024-02-14T11:04:58;3.67;;;1.80;;
6205;SDS011;3136;48.788;9.772;2024-02-14T11:07:27;2.63;;;1.73;;
6205;SDS011;3136;48.788;9.772;2024-02-14T11:10:27;3.50;;;1.90;;
6205;SDS011;3136;48.788;9.772;2024-02-14T11:12:46;4.87;;;1.90;;
6205;SDS011;3136;48.788;9.772;2024-02-14T11:15:21;2.50;;;1.27;;
6205;SDS011;3136;48.788;9.772;2024-02-14T11:17:47;3.37;;;1.60;;
6205;SDS011;3136;48.788;9.772;2024-02-14T11:20:21;2.80;;;1.53;;
6205;SDS011;3136;48.788;9.772;2024-02-14T11:22:57;4.07;;;1.60;;
6205;SDS011;3136;48.788;9.772;2024-02-14T11:25:29;1.80;;;1.40;;
6205;SDS011;3136;48.788;9.772;2024-02-14T11:27:56;4.40;;;1.50;;
6205;SDS011;3136;48.788;9.772;2024-02-14T11:30:29;2.77;;;1.37;;
6205;SDS011;3136;48.788;9.772;2024-02-14T11:33:09;4.80;;;1.50;;
6205;SDS011;3136;48.788;9.772;2024-02-14T11:35:41;2.40;;;1.50;;
6205;SDS011;3136;48.788;9.772;2024-02-14T11:38:10;2.70;;;1.80;;
6205;SDS011;3136;48.788;9.772;2024-02-14T11:40:36;2.07;;;1.47;;
6205;SDS011;3136;48.788;9.772;2024-02-14T11:43:04;2.50;;;1.30;;
6205;SDS011;3136;48.788;9.772;2024-02-14T11:45:34;2.77;;;1.50;;
6205;SDS011;3136;48.788;9.772;2024-02-14T11:48:04;2.30;;;1.10;;
6205;SDS011;3136;48.788;9.772;2024-02-14T11:50:30;3.57;;;1.50;;
6205;SDS011;3136;48.788;9.772;2024-02-14T11:52:56;3.03;;;1.40;;
6205;SDS011;3136;48.788;9.772;2024-02-14T11:55:27;2.90;;;1.57;;
6205;SDS011;3136;48.788;9.772;2024-02-14T11:57:54;4.27;;;1.40;;
6205;SDS011;3136;48.788;9.772;2024-02-14T12:00:20;3.73;;;1.70;;
6205;SDS011;3136;48.788;9.772;2024-02-14T12:02:45;1.80;;;1.43;;
6205;SDS011;3136;48.788;9.772;2024-02-14T12:05:11;2.27;;;1.30;;
6205;SDS011;3136;48.788;9.772;2024-02-14T12:07:39;3.90;;;1.50;;
6205;SDS011;3136;48.788;9.772;2024-02-14T12:10:05;3.40;;;1.40;;
6205;SDS011;3136;48.788;9.772;2024-02-14T12:12:31;4.80;;;2.57;;
6205;SDS011;3136;48.788;9.772;2024-02-14T12:14:57;4.03;;;1.60;;
6205;SDS011;3136;48.788;9.772;2024-02-14T12:17:23;3.30;;;1.40;;
6205;SDS011;3136;48.788;9.772;2024-02-14T12:19:49;3.40;;;1.20;;
6205;SDS011;3136;48.788;9.772;2024-02-14T12:22:17;2.17;;;1.30;;
6205;SDS011;3136;48.788;9.772;2024-02-14T12:24:45;1.73;;;1.20;;
6205;SDS011;3136;48.788;9.772;2024-02-14T12:27:16;2.33;;;1.40;;
6205;SDS011;3136;48.788;9.772;2024-02-14T12:29:45;3.00;;;1.20;;
6205;SDS011;3136;48.788;9.772;2024-02-14T12:32:11;1.77;;;1.20;;
6205;SDS011;3136;48.788;9.772;2024-02-14T12:34:41;2.07;;;1.10;;
6205;SDS011;3136;48.788;9.772;2024-02-14T12:37:09;3.90;;;1.17;;
6205;SDS011;3136;48.788;9.772;2024-02-14T12:39:36;2.43;;;1.20;;
6205;SDS011;3136;48.788;9.772;2024-02-14T12:42:03;1.37;;;1.10;;
6205;SDS011;3136;48.788;9.772;2024-02-14T12:44:29;1.67;;;1.00;;
6205;SDS011;3136;48.788;9.772;2024-02-14T12:46:55;1.37;;;1.00;;
6205;SDS011;3136;48.788;9.772;2024-02-14T12:49:21;1.40;;;1.07;;
6205;SDS011;3136;48.788;9.772;2024-02-14T12:51:47;2.07;;;1.20;;
6205;SDS011;3136;48.788;9.772;2024-02-14T12:54:12;1.87;;;1.00;;
6205;SDS011;3136;48.788;9.772;2024-02-14T12:56:40;1.57;;;0.90;;
6205;SDS011;3136;48.788;9.772;2024-02-14T12:59:06;1.90;;;1.27;;
6205;SDS011;3136;48.788;9.772;2024-02-14T13:01:32;2.80;;;1.13;;
6205;SDS011;3136;48.788;9.772;2024-02-14T13:03:57;2.13;;;1.03;;
6205;SDS011;3136;48.788;9.772;2024-02-14T13:06:24;1.60;;;1.00;;
6205;SDS011;3136;48.788;9.772;2024-02-14T13:08:50;1.93;;;1.00;;
6205;SDS011;3136;48.788;9.772;2024-02-14T13:11:15;1.37;;;1.00;;
6205;SDS011;3136;48.788;9.772;2024-02-14T13:13:43;1.83;;;1.37;;
6205;SDS011;3136;48.788;9.772;2024-02-14T13:16:09;1.07;;;0.97;;
6205;SDS011;3136;48.788;9.772;2024-02-14T13:18:35;2.80;;;0.90;;
6205;SDS011;3136;48.788;9.772;2024-02-14T13:21:01;1.03;;;0.90;;
6205;SDS011;3136;48.788;9.772;2024-02-14T13:23:27;1.57;;;0.97;;
6205;SDS011;3136;48.788;9.772;2024-02-14T13:25:53;2.10;;;1.47;;
6205;SDS011;3136;48.788;9.772;2024-02-14T13:28:18;3.07;;;1.47;;
6205;SDS011;3136;48.788;9.772;2024-02-14T13:30:44;1.40;;;1.30;;
6205;SDS011;3136;48.788;9.772;2024-02-14T13:33:13;1.70;;;1.20;;
6205;SDS011;3136;48.788;9.772;2024-02-14T13:35:38;2.10;;;1.90;;
6205;SDS011;3136;48.788;9.772;2024-02-14T13:38:07;1.60;;;0.93;;
6205;SDS011;3136;48.788;9.772;2024-02-14T13:40:34;1.70;;;1.60;;
6205;SDS011;3136;48.788;9.772;2024-02-14T13:43:00;1.47;;;1.20;;
6205;SDS011;3136;48.788;9.772;2024-02-14T13:45:25;3.33;;;2.70;;
6205;SDS011;3136;48.788;9.772;2024-02-14T13:47:52;1.17;;;1.00;;
6205;SDS011;3136;48.788;9.772;2024-02-14T13:50:29;1.23;;;0.83;;
6205;SDS011;3136;48.788;9.772;2024-02-14T13:52:55;1.10;;;0.80;;
6205;SDS011;3136;48.788;9.772;2024-02-14T13:55:20;3.47;;;0.93;;
6205;SDS011;3136;48.788;9.772;2024-02-14T13:57:46;2.13;;;1.00;;
6205;SDS011;3136;48.788;9.772;2024-02-14T14:00:11;0.40;;;0.40;;
6205;SDS011;3136;48.788;9.772;2024-02-14T14:02:37;1.37;;;0.80;;
6205;SDS011;3136;48.788;9.772;2024-02-14T14:05:07;0.80;;;0.70;;
6205;SDS011;3136;48.788;9.772;2024-02-14T14:07:37;1.67;;;1.10;;
6205;SDS011;3136;48.788;9.772;2024-02-14T14:10:10;3.00;;;1.10;;
6205;SDS011;3136;48.788;9.772;2024-02-14T14:12:36;2.10;;;1.90;;
6205;SDS011;3136;48.788;9.772;2024-02-14T14:15:01;1.60;;;0.90;;
6205;SDS011;3136;48.788;9.772;2024-02-14T14:17:27;2.03;;;0.97;;
6205;SDS011;3136;48.788;9.772;2024-02-14T14:19:53;4.00;;;1.50;;
6205;SDS011;3136;48.788;9.772;2024-02-14T14:22:19;1.10;;;1.00;;
6205;SDS011;3136;48.788;9.772;2024-02-14T14:24:45;2.17;;;1.30;;
6205;SDS011;3136;48.788;9.772;2024-02-14T14:27:10;2.50;;;1.60;;
6205;SDS011;3136;48.788;9.772;2024-02-14T14:29:40;1.30;;;0.77;;
6205;SDS011;3136;48.788;9.772;2024-02-14T14:32:09;2.53;;;1.00;;
6205;SDS011;3136;48.788;9.772;2024-02-14T14:34:35;5.50;;;1.00;;
6205;SDS011;3136;48.788;9.772;2024-02-14T14:37:01;2.00;;;0.90;;
6205;SDS011;3136;48.788;9.772;2024-02-14T14:39:27;1.20;;;0.90;;
6205;SDS011;3136;48.788;9.772;2024-02-14T14:41:53;0.90;;;0.80;;
6205;SDS011;3136;48.788;9.772;2024-02-14T14:44:23;2.40;;;0.90;;
6205;SDS011;3136;48.788;9.772;2024-02-14T14:46:49;0.90;;;0.70;;
6205;SDS011;3136;48.788;9.772;2024-02-14T14:49:15;0.37;;;0.37;;
6205;SDS011;3136;48.788;9.772;2024-02-14T14:51:40;1.93;;;0.80;;
6205;SDS011;3136;48.788;9.772;2024-02-14T14:54:06;1.23;;;0.80;;
6205;SDS011;3136;48.788;9.772;2024-02-14T14:56:31;1.27;;;1.17;;
6205;SDS011;3136;48.788;9.772;2024-02-14T14:58:57;2.00;;;0.53;;
6205;SDS011;3136;48.788;9.772;2024-02-14T15:01:25;0.60;;;0.60;;
6205;SDS011;3136;48.788;9.772;2024-02-14T15:03:52;2.40;;;0.83;;
6205;SDS011;3136;48.788;9.772;2024-02-14T15:06:18;1.10;;;0.67;;